createdAt,value
2023-02-06T00:00:16.168Z,-4.27
2023-02-06T00:03:21.211Z,-4.35
2023-02-06T00:06:24.809Z,-4.33
2023-02-06T00:09:28.905Z,-4.35
2023-02-06T00:12:32.338Z,-4.38
2023-02-06T00:15:36.651Z,-4.41
2023-02-06T00:18:41.617Z,-4.33
2023-02-06T00:21:45.669Z,-4.38
2023-02-06T00:24:48.858Z,-4.33
2023-02-06T00:27:52.692Z,-4.39
2023-02-06T00:30:55.919Z,-4.34
2023-02-06T00:34:00.596Z,-4.37
2023-02-06T00:37:03.748Z,-4.40
2023-02-06T00:40:08.769Z,-4.36
2023-02-06T00:43:12.399Z,-4.34
2023-02-06T00:46:15.752Z,-4.32
2023-02-06T00:49:22.173Z,-4.33
2023-02-06T00:52:30.280Z,-4.31
2023-02-06T00:55:34.043Z,-4.31
2023-02-06T00:58:37.315Z,-4.33
2023-02-06T01:01:43.172Z,-4.30
2023-02-06T01:04:47.769Z,-4.31
2023-02-06T01:07:51.401Z,-4.31
2023-02-06T01:10:56.645Z,-4.29
2023-02-06T01:14:01.622Z,-4.27
2023-02-06T01:17:05.292Z,-4.31
2023-02-06T01:20:13.176Z,-4.27
2023-02-06T01:23:16.400Z,-4.27
2023-02-06T01:26:24.161Z,-4.30
2023-02-06T01:29:27.201Z,-4.34
2023-02-06T01:32:30.330Z,-4.29
2023-02-06T01:35:34.993Z,-4.32
2023-02-06T01:38:38.412Z,-4.30
2023-02-06T01:41:41.522Z,-4.37
2023-02-06T01:44:48.149Z,-4.31
2023-02-06T01:47:53.565Z,-4.31
2023-02-06T01:50:59.644Z,-4.33
2023-02-06T01:54:06.499Z,-4.35
2023-02-06T01:57:12.948Z,-4.35
2023-02-06T02:00:16.520Z,-4.38
2023-02-06T02:03:21.183Z,-4.42
2023-02-06T02:06:28.567Z,-4.40
2023-02-06T02:09:32.849Z,-4.44
2023-02-06T02:12:36.193Z,-4.46
2023-02-06T02:15:47.449Z,-4.44
2023-02-06T02:19:16.749Z,-4.46
2023-02-06T02:22:41.369Z,-4.55
2023-02-06T02:26:45.662Z,-4.46
2023-02-06T02:30:32.219Z,-4.46
2023-02-06T02:34:12.874Z,-4.42
2023-02-06T02:37:28.648Z,-4.35
2023-02-06T02:40:44.195Z,-4.32
2023-02-06T02:43:56.264Z,-4.27
2023-02-06T02:47:05.284Z,-4.21
2023-02-06T02:50:09.318Z,-4.15
2023-02-06T02:53:15.045Z,-4.08
2023-02-06T02:56:22.324Z,-4.05
2023-02-06T02:59:31.643Z,-4.01
2023-02-06T03:02:39.971Z,-4.02
2023-02-06T03:05:55.475Z,-4.02
2023-02-06T03:09:08.107Z,-3.95
2023-02-06T03:12:20.148Z,-3.91
2023-02-06T03:15:31.164Z,-3.86
2023-02-06T03:18:42.220Z,-3.78
2023-02-06T03:21:47.604Z,-3.72
2023-02-06T03:24:53.826Z,-3.67
2023-02-06T03:27:59.991Z,-3.62
2023-02-06T03:31:09.310Z,-3.57
2023-02-06T03:34:19.417Z,-3.54
2023-02-06T03:37:23.602Z,-3.57
2023-02-06T03:40:29.895Z,-3.56
2023-02-06T03:43:33.720Z,-3.48
2023-02-06T03:46:38.654Z,-3.40
2023-02-06T03:49:44.031Z,-3.34
2023-02-06T03:52:53.498Z,-3.33
2023-02-06T03:56:03.629Z,-3.25
2023-02-06T03:59:07.047Z,-3.23
2023-02-06T04:02:10.738Z,-3.20
2023-02-06T04:05:14.464Z,-3.20
2023-02-06T04:08:17.927Z,-3.13
2023-02-06T04:11:22.431Z,-3.07
2023-02-06T04:14:25.649Z,-2.99
2023-02-06T04:17:46.374Z,-2.98
2023-02-06T04:20:53.022Z,-2.93
2023-02-06T04:23:56.308Z,-2.88
2023-02-06T04:27:00.814Z,-2.85
2023-02-06T04:30:04.516Z,-2.84
2023-02-06T04:33:07.910Z,-2.83
2023-02-06T04:36:11.236Z,-2.80
2023-02-06T04:39:14.527Z,-2.80
2023-02-06T04:42:19.095Z,-2.78
2023-02-06T04:45:22.477Z,-2.74
2023-02-06T04:48:27.528Z,-2.72
2023-02-06T04:51:31.114Z,-2.75
2023-02-06T04:54:34.408Z,-2.74
2023-02-06T04:57:39.667Z,-2.69
2023-02-06T05:00:43.625Z,-2.66
2023-02-06T05:03:47.582Z,-2.63
2023-02-06T05:06:51.279Z,-2.59
2023-02-06T05:09:54.780Z,-2.56
2023-02-06T05:12:59.432Z,-2.60
2023-02-06T05:16:07.609Z,-2.54
2023-02-06T05:19:11.130Z,-2.54
2023-02-06T05:22:14.440Z,-2.48
2023-02-06T05:25:21.832Z,-2.44
2023-02-06T05:28:34.874Z,-2.43
2023-02-06T05:31:41.122Z,-2.42
2023-02-06T05:34:46.875Z,-2.38
2023-02-06T05:38:05.061Z,-2.35
2023-02-06T05:41:14.898Z,-2.30
2023-02-06T05:44:24.713Z,-2.27
2023-02-06T05:47:38.257Z,-2.20
2023-02-06T05:50:49.157Z,-2.20
2023-02-06T05:54:01.787Z,-2.18
2023-02-06T05:57:15.168Z,-2.14
2023-02-06T06:00:27.120Z,-2.09
2023-02-06T06:03:40.125Z,-2.21
2023-02-06T06:07:02.595Z,-2.12
2023-02-06T06:10:21.282Z,-2.06
2023-02-06T06:13:28.678Z,-2.04
2023-02-06T06:16:53.706Z,-2.02
2023-02-06T06:20:03.435Z,-1.95
2023-02-06T06:23:08.197Z,-1.99
2023-02-06T06:26:22.357Z,-1.91
2023-02-06T06:29:25.450Z,-1.90
2023-02-06T06:32:32.558Z,-1.94
2023-02-06T06:35:36.095Z,-1.93
2023-02-06T06:38:40.038Z,-1.91
2023-02-06T06:41:43.123Z,-1.89
2023-02-06T06:44:49.552Z,-1.83
2023-02-06T06:47:58.241Z,-1.79
2023-02-06T06:51:06.083Z,-1.78
2023-02-06T06:54:13.268Z,-1.77
2023-02-06T06:57:20.553Z,-1.76
2023-02-06T07:00:27.539Z,-1.75
2023-02-06T07:03:35.934Z,-1.73
2023-02-06T07:10:01.625Z,-1.70
2023-02-06T07:13:06.119Z,-1.69
2023-02-06T07:16:10.435Z,-1.67
2023-02-06T07:19:14.914Z,-1.64
2023-02-06T07:22:18.204Z,-1.63
2023-02-06T07:25:22.342Z,-1.62
2023-02-06T07:28:25.392Z,-1.61
2023-02-06T07:31:28.808Z,-1.54
2023-02-06T07:34:33.231Z,-1.51
2023-02-06T07:37:36.259Z,-1.47
2023-02-06T07:40:45.151Z,-1.43
2023-02-06T07:43:50.919Z,-1.38
2023-02-06T07:46:53.906Z,-1.36
2023-02-06T07:49:58.563Z,-1.35
2023-02-06T07:53:02.477Z,-1.30
2023-02-06T07:56:12.804Z,-1.19
2023-02-06T07:59:15.918Z,-1.17
2023-02-06T08:02:19.181Z,-1.11
2023-02-06T08:05:23.593Z,-1.07
2023-02-06T08:08:27.560Z,-1.14
2023-02-06T08:11:31.037Z,-1.09
2023-02-06T08:14:34.094Z,-1.02
2023-02-06T08:17:37.074Z,-1.08
2023-02-06T08:20:41.358Z,-0.95
2023-02-06T08:23:45.335Z,-0.87
2023-02-06T08:26:48.302Z,-0.81
2023-02-06T08:29:51.725Z,-0.75
2023-02-06T08:32:54.874Z,-0.68
2023-02-06T08:36:02.693Z,-0.63
2023-02-06T08:39:06.841Z,-0.67
2023-02-06T08:42:10.549Z,-0.63
2023-02-06T08:45:13.582Z,-0.63
2023-02-06T08:48:17.141Z,-0.60
2023-02-06T08:51:22.756Z,-0.56
2023-02-06T08:54:25.938Z,-0.61
2023-02-06T08:57:32.669Z,-0.52
2023-02-06T09:00:39.110Z,-0.47
2023-02-06T09:03:44.856Z,-0.44
2023-02-06T09:06:50.146Z,-0.47
2023-02-06T09:09:53.188Z,-0.46
2023-02-06T09:12:57.652Z,-0.40
2023-02-06T09:16:00.805Z,-0.40
2023-02-06T09:19:04.862Z,-0.42
2023-02-06T09:22:09.562Z,-0.38
2023-02-06T09:25:12.991Z,-0.39
2023-02-06T09:28:16.277Z,-0.39
2023-02-06T09:31:19.384Z,-0.38
2023-02-06T09:34:24.168Z,-0.41
2023-02-06T09:37:30.239Z,-0.52
2023-02-06T09:40:36.164Z,-0.52
2023-02-06T09:43:39.860Z,-0.45
2023-02-06T09:46:48.237Z,-0.50
2023-02-06T09:49:54.807Z,-0.50
2023-02-06T09:53:18.464Z,-0.55
2023-02-06T09:56:33.386Z,-0.60
2023-02-06T09:59:44.389Z,-0.60
2023-02-06T10:03:37.390Z,-0.61
2023-02-06T10:06:49.329Z,-0.61
2023-02-06T10:09:57.692Z,-0.58
2023-02-06T10:13:08.114Z,-0.54
2023-02-06T10:16:30.024Z,-0.58
2023-02-06T10:19:43.726Z,-0.58
2023-02-06T10:22:55.424Z,-0.60
2023-02-06T10:26:12.450Z,-0.64
2023-02-06T10:29:23.938Z,-0.64
2023-02-06T10:32:42.828Z,-0.59
2023-02-06T10:35:56.674Z,-0.61
2023-02-06T10:39:45.664Z,-0.60
2023-02-06T10:43:00.168Z,-0.57
2023-02-06T10:46:26.561Z,-0.59
2023-02-06T10:49:37.362Z,-0.55
2023-02-06T10:52:40.975Z,-0.48
2023-02-06T10:55:51.110Z,-0.49
2023-02-06T10:58:59.663Z,-0.48
2023-02-06T11:02:19.484Z,-0.56
2023-02-06T11:05:26.217Z,-0.49
2023-02-06T11:08:33.801Z,-0.49
2023-02-06T11:11:41.670Z,-0.52
2023-02-06T11:14:46.152Z,-0.56
2023-02-06T11:17:50.129Z,-0.63
2023-02-06T11:20:55.738Z,-0.70
2023-02-06T11:24:11.318Z,-0.68
2023-02-06T11:27:18.482Z,-0.67
2023-02-06T11:30:35.715Z,-0.71
2023-02-06T11:33:51.823Z,-0.66
2023-02-06T11:36:57.375Z,-0.62
2023-02-06T11:40:23.369Z,-0.58
2023-02-06T11:43:28.835Z,-0.46
2023-02-06T11:46:35.458Z,-0.43
2023-02-06T11:49:38.555Z,-0.47
2023-02-06T11:52:46.383Z,-0.41
2023-02-06T11:56:06.066Z,-0.46
2023-02-06T11:59:23.204Z,-0.38
2023-02-06T12:02:32.159Z,-0.37
2023-02-06T12:05:41.027Z,-0.25
2023-02-06T12:08:49.840Z,-0.31
2023-02-06T12:11:59.997Z,-0.25
2023-02-06T12:15:33.169Z,-0.23
2023-02-06T12:18:38.370Z,-0.17
2023-02-06T12:21:46.426Z,-0.29
2023-02-06T12:24:53.025Z,-0.23
2023-02-06T12:28:00.827Z,-0.16
2023-02-06T12:31:10.485Z,-0.17
2023-02-06T12:34:19.836Z,-0.23
2023-02-06T12:37:32.370Z,-0.19
2023-02-06T12:40:46.797Z,-0.13
2023-02-06T12:43:54.685Z,-0.12
2023-02-06T12:47:03.770Z,-0.05
2023-02-06T12:50:16.717Z,-0.07
2023-02-06T12:53:27.231Z,-0.01
2023-02-06T12:56:36.289Z,0.02
2023-02-06T13:00:11.866Z,0.09
2023-02-06T13:03:29.787Z,0.15
2023-02-06T13:06:45.772Z,0.14
2023-02-06T13:10:08.420Z,0.22
2023-02-06T13:13:34.720Z,0.06
2023-02-06T13:16:53.586Z,0.16
2023-02-06T13:20:08.871Z,0.20
2023-02-06T13:23:29.851Z,0.28
2023-02-06T13:27:17.934Z,0.16
2023-02-06T13:31:01.209Z,0.16
2023-02-06T13:34:20.688Z,0.13
2023-02-06T13:43:18.899Z,0.25
2023-02-06T13:48:04.085Z,0.22
2023-02-06T13:52:24.914Z,0.37
2023-02-06T13:56:03.227Z,0.40
2023-02-06T13:59:21.303Z,0.38
2023-02-06T14:02:47.980Z,0.37
2023-02-06T14:06:26.198Z,0.31
2023-02-06T14:10:23.296Z,0.30
2023-02-06T14:13:56.607Z,0.39
2023-02-06T14:17:29.567Z,0.49
2023-02-06T14:20:45.073Z,0.29
2023-02-06T14:24:24.243Z,0.35
2023-02-06T14:27:58.520Z,0.42
2023-02-06T14:31:38.959Z,0.39
2023-02-06T14:40:23.694Z,0.45
2023-02-06T14:43:33.924Z,0.29
2023-02-06T14:46:41.938Z,0.35
2023-02-06T14:49:45.810Z,0.24
2023-02-06T14:52:54.166Z,0.27
2023-02-06T14:56:09.897Z,0.33
2023-02-06T14:59:18.277Z,0.26
2023-02-06T15:02:30.862Z,0.16
2023-02-06T15:05:34.291Z,0.12
2023-02-06T15:08:38.127Z,0.05
2023-02-06T15:11:41.817Z,0.08
2023-02-06T15:14:53.709Z,0.05
2023-02-06T15:18:00.601Z,0.03
2023-02-06T15:21:05.851Z,-0.05
2023-02-06T15:24:25.471Z,-0.13
2023-02-06T15:27:32.030Z,-0.12
2023-02-06T15:30:37.099Z,-0.04
2023-02-06T15:33:45.468Z,-0.02
2023-02-06T15:36:49.100Z,-0.10
2023-02-06T15:39:54.061Z,-0.04
2023-02-06T15:42:58.427Z,-0.02
2023-02-06T15:46:04.582Z,-0.05
2023-02-06T15:49:19.046Z,-0.09
2023-02-06T15:52:39.683Z,-0.13
2023-02-06T15:55:51.796Z,-0.17
2023-02-06T15:59:30.678Z,-0.26
2023-02-06T16:02:37.699Z,-0.37
2023-02-06T16:05:43.761Z,-0.45
2023-02-06T16:08:52.745Z,-0.46
2023-02-06T16:11:58.921Z,-0.44
2023-02-06T16:15:22.320Z,-0.47
2023-02-06T16:18:31.441Z,-0.59
2023-02-06T16:21:39.823Z,-0.65
2023-02-06T16:24:42.856Z,-0.63
2023-02-06T16:27:46.859Z,-0.74
2023-02-06T16:30:56.495Z,-0.75
2023-02-06T16:34:03.194Z,-0.71
2023-02-06T16:37:12.999Z,-0.79
2023-02-06T16:40:17.276Z,-0.85
2023-02-06T16:43:20.737Z,-0.88
2023-02-06T16:46:24.220Z,-0.86
2023-02-06T16:49:35.844Z,-0.81
2023-02-06T16:52:49.956Z,-0.87
2023-02-06T16:55:54.706Z,-0.97
2023-02-06T16:58:57.775Z,-1.01
2023-02-06T17:02:03.376Z,-1.02
2023-02-06T17:05:07.050Z,-1.04
2023-02-06T17:08:18.594Z,-1.09
2023-02-06T17:11:21.643Z,-1.10
2023-02-06T17:14:24.669Z,-1.16
2023-02-06T17:17:28.507Z,-1.23
2023-02-06T17:20:36.063Z,-1.27
2023-02-06T17:23:40.964Z,-1.19
2023-02-06T17:26:44.085Z,-1.18
2023-02-06T17:29:47.943Z,-1.24
2023-02-06T17:32:51.125Z,-1.30
2023-02-06T17:35:54.145Z,-1.34
2023-02-06T17:38:59.201Z,-1.40
2023-02-06T17:42:02.503Z,-1.39
2023-02-06T17:45:06.301Z,-1.50
2023-02-06T17:48:09.929Z,-1.51
2023-02-06T17:51:13.079Z,-1.48
2023-02-06T17:54:17.834Z,-1.46
2023-02-06T17:57:20.960Z,-1.50
2023-02-06T18:00:26.082Z,-1.50
2023-02-06T18:03:48.060Z,-1.57
2023-02-06T18:06:51.506Z,-1.62
2023-02-06T18:09:56.179Z,-1.64
2023-02-06T18:12:59.303Z,-1.62
2023-02-06T18:16:02.568Z,-1.66
2023-02-06T18:19:06.067Z,-1.70
2023-02-06T18:22:09.696Z,-1.69
2023-02-06T18:25:15.796Z,-1.78
2023-02-06T18:28:19.881Z,-1.88
2023-02-06T18:31:27.029Z,-1.95
2023-02-06T18:34:30.296Z,-1.95
2023-02-06T18:37:33.411Z,-1.98
2023-02-06T18:40:39.177Z,-2.08
2023-02-06T18:43:42.438Z,-2.17
2023-02-06T18:46:45.972Z,-2.22
2023-02-06T18:49:49.237Z,-2.29
2023-02-06T18:52:52.411Z,-2.34
2023-02-06T18:56:01.476Z,-2.32
2023-02-06T18:59:05.548Z,-2.37
2023-02-06T19:02:10.216Z,-2.47
2023-02-06T19:05:13.578Z,-2.49
2023-02-06T19:08:22.343Z,-2.52
2023-02-06T19:11:26.804Z,-2.56
2023-02-06T19:14:29.847Z,-2.57
2023-02-06T19:17:32.984Z,-2.66
2023-02-06T19:20:36.322Z,-2.68
2023-02-06T19:23:40.278Z,-2.70
2023-02-06T19:26:44.731Z,-2.73
2023-02-06T19:29:48.107Z,-2.75
2023-02-06T19:32:51.514Z,-2.79
2023-02-06T19:35:55.035Z,-2.87
2023-02-06T19:39:00.327Z,-2.92
2023-02-06T19:42:07.464Z,-2.92
2023-02-06T19:45:10.633Z,-2.94
2023-02-06T19:48:13.989Z,-2.99
2023-02-06T19:51:22.094Z,-3.00
2023-02-06T19:54:25.611Z,-3.01
2023-02-06T19:57:29.995Z,-3.03
2023-02-06T20:00:33.155Z,-3.03
2023-02-06T20:03:36.517Z,-3.08
2023-02-06T20:06:40.579Z,-3.09
2023-02-06T20:09:43.692Z,-3.08
2023-02-06T20:12:48.354Z,-3.14
2023-02-06T20:15:51.515Z,-3.21
2023-02-06T20:18:56.372Z,-3.29
2023-02-06T20:22:02.714Z,-3.25
2023-02-06T20:25:08.416Z,-3.23
2023-02-06T20:28:15.082Z,-3.29
2023-02-06T20:31:25.234Z,-3.35
2023-02-06T20:34:29.644Z,-3.34
2023-02-06T20:37:32.996Z,-3.35
2023-02-06T20:40:36.701Z,-3.37
2023-02-06T20:43:41.262Z,-3.43
2023-02-06T20:46:44.860Z,-3.45
2023-02-06T20:49:51.702Z,-3.48
2023-02-06T20:52:57.433Z,-3.50
2023-02-06T20:56:20.344Z,-3.53
2023-02-06T20:59:31.938Z,-3.54
2023-02-06T21:02:35.316Z,-3.56
2023-02-06T21:05:42.009Z,-3.60
2023-02-06T21:08:50.109Z,-3.59
2023-02-06T21:11:53.603Z,-3.63
2023-02-06T21:15:00.844Z,-3.73
2023-02-06T21:18:03.855Z,-3.73
2023-02-06T21:21:10.038Z,-3.74
2023-02-06T21:24:13.890Z,-3.78
2023-02-06T21:27:19.340Z,-3.77
2023-02-06T21:30:23.742Z,-3.77
2023-02-06T21:33:26.910Z,-3.78
2023-02-06T21:36:30.798Z,-3.78
2023-02-06T21:39:33.964Z,-3.79
2023-02-06T21:42:37.018Z,-3.84
2023-02-06T21:45:41.951Z,-3.89
2023-02-06T21:48:45.558Z,-3.93
2023-02-06T21:51:48.714Z,-3.96
2023-02-06T21:54:51.801Z,-3.95
2023-02-06T21:57:56.247Z,-3.97
2023-02-06T22:01:00.592Z,-4.01
2023-02-06T22:04:05.151Z,-4.02
2023-02-06T22:07:10.917Z,-4.00
2023-02-06T22:10:13.959Z,-4.03
2023-02-06T22:13:17.248Z,-4.06
2023-02-06T22:16:24.742Z,-4.10
2023-02-06T22:19:28.658Z,-4.16
2023-02-06T22:22:31.738Z,-4.18
2023-02-06T22:25:37.024Z,-4.18
2023-02-06T22:28:41.002Z,-4.18
2023-02-06T22:31:46.252Z,-4.19
2023-02-06T22:34:50.869Z,-4.17
2023-02-06T22:37:53.871Z,-4.16
2023-02-06T22:41:01.615Z,-4.21
2023-02-06T22:44:05.322Z,-4.22
2023-02-06T22:47:10.243Z,-4.26
2023-02-06T22:50:13.263Z,-4.28
2023-02-06T22:53:31.905Z,-4.27
2023-02-06T22:56:37.338Z,-4.29
2023-02-06T22:59:40.580Z,-4.37
2023-02-06T23:02:45.425Z,-4.38
2023-02-06T23:05:48.538Z,-4.36
2023-02-06T23:08:51.754Z,-4.32
2023-02-06T23:11:58.091Z,-4.33
2023-02-06T23:15:01.176Z,-4.35
2023-02-06T23:18:06.973Z,-4.42
2023-02-06T23:21:12.836Z,-4.47
2023-02-06T23:24:17.081Z,-4.51
2023-02-06T23:27:20.964Z,-4.51
2023-02-06T23:30:24.630Z,-4.59
2023-02-06T23:33:29.143Z,-4.59
2023-02-06T23:36:32.279Z,-4.62
2023-02-06T23:39:35.367Z,-4.65
2023-02-06T23:42:39.058Z,-4.65
2023-02-06T23:45:42.315Z,-4.64
2023-02-06T23:48:47.050Z,-4.66
2023-02-06T23:51:50.114Z,-4.68
2023-02-06T23:54:53.215Z,-4.68
2023-02-06T23:57:56.226Z,-4.71
